createdAt,value
2018-06-30T00:00:45.603Z,22.58
2018-06-30T00:03:16.034Z,22.46
2018-06-30T00:05:45.188Z,22.52
2018-06-30T00:08:14.409Z,22.48
2018-06-30T00:10:43.688Z,22.37
2018-06-30T00:13:13.170Z,22.33
2018-06-30T00:15:42.393Z,22.39
2018-06-30T00:18:11.913Z,22.44
2018-06-30T00:20:41.218Z,22.35
2018-06-30T00:23:10.454Z,22.28
2018-06-30T00:25:39.595Z,21.98
2018-06-30T00:28:08.709Z,21.74
2018-06-30T00:30:38.123Z,21.74
2018-06-30T00:33:07.223Z,21.85
2018-06-30T00:35:36.266Z,21.89
2018-06-30T00:38:05.379Z,21.99
2018-06-30T00:40:34.438Z,21.98
2018-06-30T00:43:03.519Z,21.95
2018-06-30T00:45:32.631Z,21.87
2018-06-30T00:48:01.731Z,21.80
2018-06-30T00:50:30.965Z,21.79
2018-06-30T00:53:00.496Z,21.73
2018-06-30T00:55:30.024Z,21.56
2018-06-30T00:57:59.292Z,21.50
2018-06-30T01:00:28.397Z,21.51
2018-06-30T01:02:57.558Z,21.53
2018-06-30T01:05:26.735Z,21.46
2018-06-30T01:07:56.285Z,21.46
2018-06-30T01:10:25.371Z,21.42
2018-06-30T01:12:54.465Z,21.39
2018-06-30T01:15:23.657Z,21.29
2018-06-30T01:17:52.823Z,21.34
2018-06-30T01:20:22.319Z,21.29
2018-06-30T01:22:51.405Z,21.27
2018-06-30T01:25:20.522Z,21.24
2018-06-30T01:27:49.608Z,21.19
2018-06-30T01:30:18.760Z,21.12
2018-06-30T01:32:47.853Z,21.05
2018-06-30T01:35:16.993Z,21.09
2018-06-30T01:37:46.094Z,21.14
2018-06-30T01:40:15.278Z,21.06
2018-06-30T01:42:44.824Z,20.92
2018-06-30T01:45:13.952Z,20.86
2018-06-30T01:47:43.051Z,20.88
2018-06-30T01:50:12.245Z,21.02
2018-06-30T01:52:41.342Z,20.90
2018-06-30T01:55:10.474Z,19.82
2018-06-30T01:57:39.497Z,20.71
2018-06-30T02:00:08.639Z,20.72
2018-06-30T02:02:37.705Z,20.64
2018-06-30T02:05:06.822Z,20.59
2018-06-30T02:07:35.918Z,20.58
2018-06-30T02:10:05.013Z,20.51
2018-06-30T02:12:34.161Z,20.48
2018-06-30T02:15:03.342Z,20.48
2018-06-30T02:17:33.084Z,20.47
2018-06-30T02:20:02.284Z,20.37
2018-06-30T02:22:31.458Z,20.45
2018-06-30T02:25:01.258Z,20.38
2018-06-30T02:27:30.362Z,20.31
2018-06-30T02:29:59.963Z,20.35
2018-06-30T02:32:29.274Z,20.33
2018-06-30T02:34:58.356Z,20.26
2018-06-30T02:37:27.794Z,20.20
2018-06-30T02:39:56.998Z,20.15
2018-06-30T02:42:26.086Z,20.09
2018-06-30T02:44:55.166Z,20.10
2018-06-30T02:47:24.250Z,20.00
2018-06-30T02:49:54.003Z,19.27
2018-06-30T02:52:23.081Z,19.96
2018-06-30T02:54:52.171Z,19.93
2018-06-30T02:57:21.272Z,19.96
2018-06-30T02:59:50.373Z,19.97
2018-06-30T03:02:19.506Z,20.00
2018-06-30T03:04:48.815Z,19.98
2018-06-30T03:07:17.990Z,19.90
2018-06-30T03:09:47.072Z,19.86
2018-06-30T03:12:16.319Z,19.69
2018-06-30T03:14:45.504Z,19.68
2018-06-30T03:17:14.563Z,19.75
2018-06-30T03:19:43.700Z,19.82
2018-06-30T03:22:12.778Z,19.82
2018-06-30T03:24:41.837Z,19.81
2018-06-30T03:27:11.038Z,19.88
2018-06-30T03:29:40.101Z,19.78
2018-06-30T03:32:09.206Z,19.74
2018-06-30T03:34:38.292Z,19.69
2018-06-30T03:37:07.414Z,19.53
2018-06-30T03:39:36.969Z,19.50
2018-06-30T03:42:06.154Z,19.55
2018-06-30T03:44:35.305Z,19.58
2018-06-30T03:47:04.621Z,19.50
2018-06-30T03:49:33.791Z,19.47
2018-06-30T03:52:02.907Z,19.59
2018-06-30T03:54:32.126Z,19.71
2018-06-30T03:57:01.302Z,19.66
2018-06-30T03:59:30.445Z,19.61
2018-06-30T04:01:59.589Z,19.54
2018-06-30T04:04:28.709Z,19.54
2018-06-30T04:06:57.794Z,19.47
2018-06-30T04:09:26.897Z,19.53
2018-06-30T04:11:55.983Z,19.55
2018-06-30T04:14:25.404Z,19.59
2018-06-30T04:16:54.473Z,18.26
2018-06-30T04:19:23.678Z,19.57
2018-06-30T04:21:52.869Z,19.60
2018-06-30T04:24:22.071Z,19.58
2018-06-30T04:26:51.276Z,19.51
2018-06-30T04:29:20.487Z,19.63
2018-06-30T04:31:49.661Z,19.68
2018-06-30T04:34:18.735Z,19.61
2018-06-30T04:36:47.872Z,19.51
2018-06-30T04:39:17.040Z,19.51
2018-06-30T04:41:46.138Z,19.53
2018-06-30T04:44:15.669Z,19.61
2018-06-30T04:46:44.841Z,19.68
2018-06-30T04:49:13.909Z,19.72
2018-06-30T04:51:43.042Z,19.75
2018-06-30T04:54:12.127Z,19.86
2018-06-30T04:56:41.193Z,19.92
2018-06-30T04:59:10.380Z,19.98
2018-06-30T05:01:39.601Z,20.07
2018-06-30T05:04:09.006Z,20.08
2018-06-30T05:06:38.203Z,20.12
2018-06-30T05:09:08.165Z,20.13
2018-06-30T05:11:37.413Z,20.20
2018-06-30T05:14:06.630Z,20.29
2018-06-30T05:16:36.105Z,20.32
2018-06-30T05:19:05.222Z,20.44
2018-06-30T05:21:34.472Z,20.39
2018-06-30T05:24:03.627Z,20.51
2018-06-30T05:26:32.740Z,20.60
2018-06-30T05:29:01.788Z,20.70
2018-06-30T05:31:30.939Z,20.76
2018-06-30T05:34:00.015Z,20.82
2018-06-30T05:36:29.117Z,20.97
2018-06-30T05:38:58.541Z,20.92
2018-06-30T05:41:27.644Z,20.97
2018-06-30T05:43:56.722Z,21.12
2018-06-30T05:46:25.800Z,21.22
2018-06-30T05:48:55.017Z,21.29
2018-06-30T05:51:24.105Z,21.38
2018-06-30T05:53:53.249Z,21.44
2018-06-30T05:56:22.402Z,21.53
2018-06-30T05:58:52.066Z,21.68
2018-06-30T06:01:21.173Z,21.87
2018-06-30T06:03:50.313Z,21.74
2018-06-30T06:06:19.362Z,22.19
2018-06-30T06:08:48.478Z,22.25
2018-06-30T06:11:17.557Z,22.37
2018-06-30T06:13:46.740Z,22.42
2018-06-30T06:16:15.905Z,22.47
2018-06-30T06:18:45.122Z,22.54
2018-06-30T06:21:14.642Z,22.57
2018-06-30T06:23:44.558Z,22.67
2018-06-30T06:26:13.683Z,22.70
2018-06-30T06:28:42.843Z,22.83
2018-06-30T06:31:12.041Z,23.04
2018-06-30T06:33:41.283Z,23.13
2018-06-30T06:36:10.498Z,23.26
2018-06-30T06:38:39.799Z,23.28
2018-06-30T06:41:08.972Z,23.33
2018-06-30T06:43:38.137Z,23.45
2018-06-30T06:46:07.334Z,23.57
2018-06-30T06:48:36.446Z,23.62
2018-06-30T06:51:05.581Z,23.66
2018-06-30T06:53:34.737Z,23.85
2018-06-30T06:56:03.837Z,24.03
2018-06-30T06:58:32.877Z,24.13
2018-06-30T07:01:02.051Z,24.25
2018-06-30T07:03:31.910Z,24.32
2018-06-30T07:06:01.149Z,24.43
2018-06-30T07:08:30.262Z,24.52
2018-06-30T07:10:59.458Z,24.57
2018-06-30T07:13:28.524Z,24.64
2018-06-30T07:15:57.645Z,24.66
2018-06-30T07:18:26.761Z,24.65
2018-06-30T07:20:56.041Z,24.68
2018-06-30T07:23:25.141Z,24.88
2018-06-30T07:25:54.281Z,25.06
2018-06-30T07:28:23.530Z,25.17
2018-06-30T07:30:52.634Z,25.28
2018-06-30T07:33:21.800Z,25.45
2018-06-30T07:35:50.925Z,25.54
2018-06-30T07:38:20.015Z,25.60
2018-06-30T07:40:49.193Z,25.70
2018-06-30T07:43:18.373Z,25.58
2018-06-30T07:45:47.455Z,25.71
2018-06-30T07:48:16.660Z,25.86
2018-06-30T07:50:45.811Z,25.92
2018-06-30T07:53:15.019Z,26.04
2018-06-30T07:55:44.203Z,26.22
2018-06-30T07:58:13.315Z,26.34
2018-06-30T08:00:42.623Z,26.43
2018-06-30T08:03:11.805Z,26.09
2018-06-30T08:05:41.002Z,26.02
2018-06-30T08:08:10.074Z,26.19
2018-06-30T08:10:39.214Z,26.38
2018-06-30T08:13:08.534Z,26.51
2018-06-30T08:15:37.756Z,26.40
2018-06-30T08:18:06.998Z,26.47
2018-06-30T08:20:36.500Z,26.63
2018-06-30T08:23:05.817Z,26.77
2018-06-30T08:25:35.968Z,26.76
2018-06-30T08:28:06.422Z,26.83
2018-06-30T08:30:35.650Z,26.59
2018-06-30T08:33:04.715Z,26.59
2018-06-30T08:35:33.858Z,26.76
2018-06-30T08:38:02.974Z,26.76
2018-06-30T08:40:32.122Z,26.53
2018-06-30T08:43:01.181Z,26.82
2018-06-30T08:45:42.907Z,27.02
2018-06-30T08:48:12.102Z,27.05
2018-06-30T08:50:41.298Z,27.01
2018-06-30T08:53:11.221Z,26.88
2018-06-30T08:55:40.446Z,27.11
2018-06-30T08:58:09.520Z,27.32
2018-06-30T09:00:38.769Z,27.37
2018-06-30T09:03:07.874Z,27.64
2018-06-30T09:05:37.104Z,27.86
2018-06-30T09:08:06.505Z,27.88
2018-06-30T09:10:35.711Z,27.70
2018-06-30T09:13:04.810Z,27.90
2018-06-30T09:15:33.958Z,28.10
2018-06-30T09:18:03.059Z,28.21
2018-06-30T09:20:32.187Z,28.25
2018-06-30T09:23:01.385Z,28.36
2018-06-30T09:25:30.481Z,28.46
2018-06-30T09:27:59.484Z,28.59
2018-06-30T09:30:28.651Z,28.38
2018-06-30T09:32:58.183Z,28.38
2018-06-30T09:35:27.347Z,28.58
2018-06-30T09:37:56.389Z,28.80
2018-06-30T09:40:25.431Z,28.54
2018-06-30T09:42:54.559Z,28.72
2018-06-30T09:45:24.090Z,28.77
2018-06-30T09:47:53.658Z,28.87
2018-06-30T09:50:22.767Z,29.08
2018-06-30T09:52:51.863Z,28.90
2018-06-30T09:55:20.962Z,28.92
2018-06-30T09:57:50.157Z,28.96
2018-06-30T10:00:24.691Z,29.03
2018-06-30T10:02:53.780Z,29.15
2018-06-30T10:05:22.966Z,29.30
2018-06-30T10:07:52.117Z,29.05
2018-06-30T10:10:21.291Z,29.05
2018-06-30T10:12:50.627Z,29.23
2018-06-30T10:15:19.763Z,29.01
2018-06-30T10:17:48.817Z,29.32
2018-06-30T10:20:17.955Z,29.28
2018-06-30T10:22:47.044Z,29.13
2018-06-30T10:25:16.182Z,29.47
2018-06-30T10:27:45.340Z,29.77
2018-06-30T10:30:14.478Z,29.72
2018-06-30T10:32:43.657Z,29.88
2018-06-30T10:35:12.849Z,30.01
2018-06-30T10:37:41.950Z,29.53
2018-06-30T10:40:11.236Z,29.48
2018-06-30T10:42:40.282Z,29.90
2018-06-30T10:45:09.478Z,30.14
2018-06-30T10:47:38.523Z,30.34
2018-06-30T10:50:07.941Z,30.25
2018-06-30T10:52:37.042Z,30.25
2018-06-30T10:55:06.130Z,30.34
2018-06-30T10:57:35.410Z,30.40
2018-06-30T11:00:04.938Z,30.46
2018-06-30T11:02:34.018Z,30.69
2018-06-30T11:05:03.097Z,30.90
2018-06-30T11:07:32.182Z,31.07
2018-06-30T11:10:01.725Z,31.02
2018-06-30T11:12:30.794Z,30.96
2018-06-30T11:14:59.978Z,30.99
2018-06-30T11:17:29.094Z,31.05
2018-06-30T11:19:58.309Z,31.06
2018-06-30T11:22:27.867Z,31.12
2018-06-30T11:24:56.885Z,31.07
2018-06-30T11:27:26.020Z,31.16
2018-06-30T11:29:55.206Z,31.20
2018-06-30T11:32:24.306Z,31.10
2018-06-30T11:34:53.451Z,31.22
2018-06-30T11:37:22.557Z,31.55
2018-06-30T11:39:51.681Z,31.68
2018-06-30T11:42:20.778Z,31.74
2018-06-30T11:44:49.857Z,31.91
2018-06-30T11:47:19.159Z,31.68
2018-06-30T11:49:48.379Z,31.80
2018-06-30T11:52:17.477Z,31.90
2018-06-30T11:54:46.541Z,31.98
2018-06-30T11:57:15.642Z,32.01
2018-06-30T11:59:44.806Z,32.21
2018-06-30T12:02:13.920Z,32.34
2018-06-30T12:04:43.052Z,32.56
2018-06-30T12:07:12.961Z,32.44
2018-06-30T12:09:42.140Z,32.13
2018-06-30T12:12:11.254Z,32.11
2018-06-30T12:14:40.340Z,32.44
2018-06-30T12:17:09.466Z,32.60
2018-06-30T12:19:38.564Z,32.69
2018-06-30T12:22:07.646Z,32.68
2018-06-30T12:24:36.783Z,32.76
2018-06-30T12:27:05.914Z,32.81
2018-06-30T12:29:35.115Z,32.60
2018-06-30T12:32:04.286Z,32.42
2018-06-30T12:34:33.261Z,32.10
2018-06-30T12:37:02.360Z,32.28
2018-06-30T12:39:31.433Z,32.68
2018-06-30T12:42:00.606Z,32.98
2018-06-30T12:44:29.654Z,33.41
2018-06-30T12:46:58.747Z,33.63
2018-06-30T12:49:27.845Z,33.81
2018-06-30T12:51:56.900Z,34.01
2018-06-30T12:54:26.091Z,34.23
2018-06-30T12:56:55.754Z,34.37
2018-06-30T12:59:24.849Z,34.21
2018-06-30T13:01:54.056Z,34.15
2018-06-30T13:04:23.096Z,33.72
2018-06-30T13:06:52.197Z,33.53
2018-06-30T13:09:21.276Z,33.26
2018-06-30T13:11:50.992Z,33.18
2018-06-30T13:14:20.264Z,32.70
2018-06-30T13:16:49.472Z,32.67
2018-06-30T13:19:18.602Z,32.84
2018-06-30T13:21:47.847Z,32.86
2018-06-30T13:24:17.008Z,33.14
2018-06-30T13:26:46.387Z,33.71
2018-06-30T13:29:15.595Z,33.21
2018-06-30T13:31:44.784Z,32.92
2018-06-30T13:34:13.933Z,32.75
2018-06-30T13:36:42.957Z,33.14
2018-06-30T13:39:14.025Z,33.23
2018-06-30T13:41:43.645Z,33.88
2018-06-30T13:44:13.231Z,33.80
2018-06-30T13:46:42.305Z,33.33
2018-06-30T13:49:11.472Z,33.42
2018-06-30T13:51:40.493Z,33.63
2018-06-30T13:54:09.727Z,34.21
2018-06-30T13:56:38.828Z,33.87
2018-06-30T13:59:08.244Z,33.78
2018-06-30T14:01:37.510Z,33.79
2018-06-30T14:04:06.661Z,33.98
2018-06-30T14:06:35.792Z,33.97
2018-06-30T14:09:07.942Z,34.08
2018-06-30T14:11:37.406Z,33.69
2018-06-30T14:14:06.851Z,33.91
2018-06-30T14:16:36.304Z,34.48
2018-06-30T14:19:05.431Z,34.76
2018-06-30T14:21:34.476Z,34.51
2018-06-30T14:24:03.602Z,34.69
2018-06-30T14:26:32.689Z,34.68
2018-06-30T14:29:01.893Z,34.90
2018-06-30T14:31:31.015Z,35.38
2018-06-30T14:34:00.279Z,35.84
2018-06-30T14:36:29.406Z,36.14
2018-06-30T14:38:58.451Z,36.06
2018-06-30T14:41:27.591Z,36.30
2018-06-30T14:43:56.890Z,35.97
2018-06-30T14:46:25.985Z,35.87
2018-06-30T14:48:55.888Z,35.47
2018-06-30T14:51:25.005Z,34.72
2018-06-30T14:53:54.129Z,34.67
2018-06-30T14:56:23.333Z,35.31
2018-06-30T14:58:52.824Z,35.51
2018-06-30T15:01:22.013Z,35.29
2018-06-30T15:03:51.205Z,35.16
2018-06-30T15:06:20.318Z,35.45
2018-06-30T15:08:49.370Z,35.74
2018-06-30T15:11:18.551Z,35.90
2018-06-30T15:13:48.028Z,36.16
2018-06-30T15:16:17.358Z,36.29
2018-06-30T15:18:46.474Z,36.14
2018-06-30T15:21:15.493Z,36.27
2018-06-30T15:23:44.632Z,36.21
2018-06-30T15:26:14.525Z,35.86
2018-06-30T15:28:43.690Z,35.50
2018-06-30T15:31:12.769Z,35.26
2018-06-30T15:33:41.948Z,35.51
2018-06-30T15:36:11.209Z,35.80
2018-06-30T15:38:40.102Z,35.45
2018-06-30T15:41:09.199Z,35.10
2018-06-30T15:43:38.496Z,34.74
2018-06-30T15:46:07.762Z,34.91
2018-06-30T15:48:36.888Z,35.14
2018-06-30T15:51:06.053Z,35.85
2018-06-30T15:53:35.165Z,36.72
2018-06-30T15:56:04.586Z,37.31
2018-06-30T15:58:34.246Z,37.39
2018-06-30T16:01:03.323Z,37.80
2018-06-30T16:03:33.274Z,37.70
2018-06-30T16:06:02.543Z,37.62
2018-06-30T16:08:31.631Z,37.64
2018-06-30T16:11:00.698Z,37.56
2018-06-30T16:13:30.170Z,37.47
2018-06-30T16:15:59.302Z,36.87
2018-06-30T16:18:28.330Z,37.02
2018-06-30T16:20:57.587Z,37.64
2018-06-30T16:23:26.698Z,37.67
2018-06-30T16:25:55.880Z,37.10
2018-06-30T16:28:24.999Z,36.65
2018-06-30T16:30:54.163Z,37.38
2018-06-30T16:33:23.189Z,37.43
2018-06-30T16:35:52.374Z,37.75
2018-06-30T16:38:21.430Z,37.43
2018-06-30T16:40:50.521Z,36.50
2018-06-30T16:43:19.661Z,35.61
2018-06-30T16:45:48.770Z,36.05
2018-06-30T16:48:17.896Z,36.28
2018-06-30T16:50:47.582Z,35.86
2018-06-30T16:53:16.723Z,35.30
2018-06-30T16:55:45.788Z,35.94
2018-06-30T16:58:14.891Z,36.16
2018-06-30T17:00:44.042Z,36.64
2018-06-30T17:03:13.437Z,35.98
2018-06-30T17:05:42.532Z,35.85
2018-06-30T17:08:12.851Z,35.85
2018-06-30T17:10:42.101Z,35.81
2018-06-30T17:13:11.533Z,35.13
2018-06-30T17:15:40.633Z,34.95
2018-06-30T17:18:09.759Z,34.89
2018-06-30T17:20:38.975Z,33.84
2018-06-30T17:23:08.146Z,33.71
2018-06-30T17:25:37.198Z,33.71
2018-06-30T17:28:06.340Z,33.76
2018-06-30T17:30:35.433Z,33.77
2018-06-30T17:33:04.994Z,33.80
2018-06-30T17:35:34.460Z,33.21
2018-06-30T17:38:03.614Z,33.15
2018-06-30T17:40:32.809Z,32.95
2018-06-30T17:43:01.942Z,32.57
2018-06-30T17:45:31.021Z,32.83
2018-06-30T17:48:00.089Z,32.52
2018-06-30T17:50:29.338Z,32.62
2018-06-30T17:52:58.461Z,32.50
2018-06-30T17:55:27.542Z,32.40
2018-06-30T17:57:56.658Z,32.34
2018-06-30T18:00:25.789Z,32.31
2018-06-30T18:02:54.869Z,32.32
2018-06-30T18:05:23.988Z,32.27
2018-06-30T18:07:53.076Z,32.37
2018-06-30T18:10:22.230Z,32.36
2018-06-30T18:12:51.398Z,32.34
2018-06-30T18:15:20.636Z,32.53
2018-06-30T18:17:49.682Z,32.38
2018-06-30T18:20:18.763Z,32.23
2018-06-30T18:22:47.827Z,32.28
2018-06-30T18:25:16.901Z,32.18
2018-06-30T18:27:45.951Z,32.04
2018-06-30T18:30:15.072Z,31.90
2018-06-30T18:32:44.162Z,31.90
2018-06-30T18:35:13.281Z,31.64
2018-06-30T18:37:42.461Z,31.56
2018-06-30T18:40:11.522Z,31.43
2018-06-30T18:42:40.726Z,31.44
2018-06-30T18:45:09.851Z,31.46
2018-06-30T18:47:38.972Z,31.34
2018-06-30T18:50:08.120Z,31.39
2018-06-30T18:52:37.307Z,31.28
2018-06-30T18:55:06.385Z,31.23
2018-06-30T18:57:35.573Z,31.23
2018-06-30T19:00:05.583Z,31.10
2018-06-30T19:02:34.757Z,30.78
2018-06-30T19:05:03.841Z,30.98
2018-06-30T19:07:32.985Z,31.06
2018-06-30T19:10:02.071Z,30.95
2018-06-30T19:12:31.261Z,30.94
2018-06-30T19:15:00.321Z,30.96
2018-06-30T19:17:29.422Z,30.93
2018-06-30T19:19:58.558Z,30.81
2018-06-30T19:22:27.746Z,30.60
2018-06-30T19:24:56.870Z,30.37
2018-06-30T19:27:26.413Z,30.28
2018-06-30T19:29:55.621Z,30.21
2018-06-30T19:32:24.785Z,30.13
2018-06-30T19:34:53.838Z,29.94
2018-06-30T19:37:22.966Z,30.07
2018-06-30T19:39:52.047Z,30.20
2018-06-30T19:42:21.227Z,30.13
2018-06-30T19:44:50.187Z,30.04
2018-06-30T19:47:19.232Z,29.97
2018-06-30T19:49:48.356Z,30.01
2018-06-30T19:52:17.390Z,29.92
2018-06-30T19:54:46.477Z,29.88
2018-06-30T19:57:15.715Z,29.86
2018-06-30T19:59:44.938Z,29.76
2018-06-30T20:02:14.069Z,29.83
2018-06-30T20:04:43.289Z,29.64
2018-06-30T20:07:12.361Z,29.47
2018-06-30T20:09:41.456Z,29.46
2018-06-30T20:12:10.598Z,29.35
2018-06-30T20:14:39.776Z,29.36
2018-06-30T20:17:08.897Z,29.17
2018-06-30T20:19:38.097Z,29.08
2018-06-30T20:22:07.242Z,28.99
2018-06-30T20:24:36.628Z,29.00
2018-06-30T20:27:06.073Z,28.85
2018-06-30T20:29:34.938Z,28.94
2018-06-30T20:32:04.057Z,28.79
2018-06-30T20:34:33.159Z,28.71
2018-06-30T20:37:02.238Z,28.59
2018-06-30T20:39:31.373Z,28.49
2018-06-30T20:42:00.482Z,28.47
2018-06-30T20:44:29.576Z,28.36
2018-06-30T20:46:58.758Z,28.27
2018-06-30T20:49:27.901Z,28.26
2018-06-30T20:51:57.017Z,28.13
2018-06-30T20:54:26.111Z,28.16
2018-06-30T20:56:56.386Z,28.13
2018-06-30T20:59:25.560Z,28.19
2018-06-30T21:01:54.623Z,28.05
2018-06-30T21:04:23.683Z,27.94
2018-06-30T21:06:52.867Z,27.22
2018-06-30T21:09:21.992Z,28.10
2018-06-30T21:11:51.097Z,28.27
2018-06-30T21:14:20.210Z,28.13
2018-06-30T21:16:49.420Z,28.04
2018-06-30T21:19:18.543Z,27.72
2018-06-30T21:21:47.677Z,27.02
2018-06-30T21:24:17.274Z,27.72
2018-06-30T21:26:46.418Z,27.98
2018-06-30T21:29:15.488Z,28.01
2018-06-30T21:31:44.608Z,28.08
2018-06-30T21:34:13.689Z,28.03
2018-06-30T21:36:42.875Z,27.98
2018-06-30T21:39:13.075Z,28.00
2018-06-30T21:41:42.161Z,27.99
2018-06-30T21:44:11.354Z,28.04
2018-06-30T21:46:40.806Z,27.91
2018-06-30T21:49:10.012Z,27.76
2018-06-30T21:51:39.130Z,27.71
2018-06-30T21:54:09.250Z,27.79
2018-06-30T21:56:38.402Z,27.88
2018-06-30T21:59:07.541Z,27.89
2018-06-30T22:01:36.593Z,27.93
2018-06-30T22:04:05.798Z,27.93
2018-06-30T22:06:35.293Z,27.84
2018-06-30T22:09:07.777Z,27.77
2018-06-30T22:11:37.081Z,27.48
2018-06-30T22:14:06.359Z,27.32
2018-06-30T22:16:35.559Z,27.18
2018-06-30T22:19:04.656Z,27.09
2018-06-30T22:21:33.754Z,27.06
2018-06-30T22:24:02.862Z,27.00
2018-06-30T22:26:32.040Z,26.97
2018-06-30T22:29:01.018Z,27.00
2018-06-30T22:31:30.130Z,26.98
2018-06-30T22:33:59.262Z,26.93
2018-06-30T22:36:28.381Z,26.99
2018-06-30T22:38:57.550Z,27.04
2018-06-30T22:41:26.673Z,27.09
2018-06-30T22:43:55.738Z,27.03
2018-06-30T22:46:24.853Z,27.02
2018-06-30T22:48:53.902Z,26.89
2018-06-30T22:51:23.005Z,26.83
2018-06-30T22:53:52.298Z,26.77
2018-06-30T22:56:22.244Z,26.78
2018-06-30T22:58:51.371Z,26.70
2018-06-30T23:01:20.514Z,26.75
2018-06-30T23:03:49.630Z,26.66
2018-06-30T23:06:18.782Z,26.33
2018-06-30T23:08:54.197Z,26.04
2018-06-30T23:11:24.269Z,25.86
2018-06-30T23:13:53.354Z,25.18
2018-06-30T23:16:22.469Z,24.69
2018-06-30T23:18:51.531Z,24.04
2018-06-30T23:21:20.643Z,24.53
2018-06-30T23:23:49.754Z,24.52
2018-06-30T23:26:18.843Z,24.42
2018-06-30T23:28:47.981Z,24.32
2018-06-30T23:31:17.022Z,24.02
2018-06-30T23:33:46.126Z,24.17
2018-06-30T23:36:15.577Z,24.10
2018-06-30T23:38:44.729Z,23.86
2018-06-30T23:41:13.780Z,23.77
2018-06-30T23:43:42.865Z,23.77
2018-06-30T23:46:11.946Z,23.74
2018-06-30T23:48:41.026Z,23.79
2018-06-30T23:51:10.196Z,23.65
2018-06-30T23:53:39.304Z,23.50
2018-06-30T23:56:08.489Z,23.33
2018-06-30T23:58:37.600Z,23.27
